Newark, OH (43058)

2:45 AM EST on November 29, 2014 (GMT -0500)
Aerospace Center | Change Station
CLOSE
Current Station
Personal Weather Station
Location: Heath, OH
Elevation: 903 ft
Nearby Weather Stations

Elev 903 ft 40.02 °N, 82.47 °W | Updated 4 minutes ago

Mostly Cloudy
Mostly Cloudy
31.3 °F
Feels Like 31 °F
N
0.0
Wind Variable Wind from SSE
Gusts 0.0 mph

Today
High -- | Low -- °F
--% Chance of Precip.
Yesterday
High -- | Low -- °F
Precip. -- in
7:30 AM 5:05 PM
Waxing Crescent, 49% visible
Pressure 30.13 in
Visibility 10.0 miles
Clouds Mostly Cloudy 11000 ft
Windchill 31 °F
Dew Point 23 °F
Humidity 70%
Rainfall 0.00 in
Snow Depth Not available.
UV 0 out of 12
Pollen .10 out of 12
Air Quality Not available.
Flu Activity Not available.
METAR KVTA 290654Z AUTO 17004KT 10SM BKN110 M01/M07 A3010 RMK AO2 SLP202 T10061072

More Conditions Fewer Conditions

Pressure 30.13 in
Visibility 10.0 miles
Clouds Mostly Cloudy 11000 ft
Windchill 31 °F
Dew Point 23 °F
Humidity 70%
Rainfall 0.00 in
Snow Depth Not available.
UV 0 out of 12
Pollen .10 out of 12
Air Quality Not available.
Flu Activity Not available.
METAR KVTA 290654Z AUTO 17004KT 10SM BKN110 M01/M07 A3010 RMK AO2 SLP202 T10061072

More Conditions Fewer Conditions

10-Day Weather Forecast

Almanac

Astronomy

Nov. 29, 2014 Rise Set
Actual Time
Civil Twilight
Nautical Twilight
Astronomical Twilight
Moon
Length of Visible Light
Length of Day
Tomorrow will be .
, % of the Moon is Illuminated

Today's Extremes

State Highs State Lows

Community

WunderPhotos

Upload Photos

1,774,432 photos uploaded!

WunderBlogs® & News

Nearby

Air Quality

  Air Quality AQ Index Pollutant
Not available.

Snow Depth

Station Depth Elevation

Earthquake Activity

City Distance Mag. Time & Date
Minimum magnitude displayed is 2.5.

Coastal Water Temperatures

Place Temperature

Nearby Weather Stations